createdAt,value
2019-05-07T00:01:23.241Z,77.22
2019-05-07T00:03:55.005Z,76.68
2019-05-07T00:06:26.788Z,76.51
2019-05-07T00:08:58.268Z,76.83
2019-05-07T00:11:29.691Z,76.85
2019-05-07T00:14:03.031Z,77.14
2019-05-07T00:16:33.817Z,77.29
2019-05-07T00:19:07.189Z,77.42
2019-05-07T00:21:38.575Z,77.33
2019-05-07T00:24:13.325Z,77.36
2019-05-07T00:26:44.820Z,76.75
2019-05-07T00:29:16.381Z,76.53
2019-05-07T00:31:47.640Z,76.57
2019-05-07T00:34:21.999Z,76.65
2019-05-07T00:37:02.190Z,76.86
2019-05-07T00:39:55.408Z,77.11
2019-05-07T00:42:53.016Z,77.10
2019-05-07T00:45:34.298Z,76.82
2019-05-07T00:48:05.831Z,76.39
2019-05-07T00:50:38.926Z,76.54
2019-05-07T00:53:10.259Z,76.42
2019-05-07T00:55:42.304Z,76.67
2019-05-07T00:58:13.796Z,77.15
2019-05-07T01:00:45.023Z,76.72
2019-05-07T01:03:16.232Z,76.48
2019-05-07T01:05:47.470Z,76.42
2019-05-07T01:08:18.703Z,77.13
2019-05-07T01:10:52.630Z,76.52
2019-05-07T01:13:25.939Z,78.03
2019-05-07T01:15:57.601Z,77.88
2019-05-07T01:18:29.183Z,77.95
2019-05-07T01:21:02.402Z,77.55
2019-05-07T01:23:33.910Z,76.71
2019-05-07T01:26:05.428Z,76.86
2019-05-07T01:28:55.030Z,76.76
2019-05-07T01:31:28.510Z,77.10
2019-05-07T01:34:22.961Z,76.64
2019-05-07T01:36:53.976Z,76.90
2019-05-07T01:39:25.160Z,76.76
2019-05-07T01:41:56.558Z,77.33
2019-05-07T01:44:28.121Z,77.42
2019-05-07T01:46:59.502Z,77.93
2019-05-07T01:49:33.137Z,78.13
2019-05-07T01:52:05.584Z,77.90
2019-05-07T01:54:36.793Z,77.72
2019-05-07T01:57:08.006Z,77.60
2019-05-07T01:59:39.404Z,77.13
2019-05-07T02:02:31.922Z,76.73
2019-05-07T02:05:13.904Z,76.73
2019-05-07T02:07:52.128Z,76.87
2019-05-07T02:10:38.130Z,76.89
2019-05-07T02:13:09.584Z,77.23
2019-05-07T02:15:42.842Z,77.21
2019-05-07T02:18:14.172Z,77.48
2019-05-07T02:20:45.780Z,76.95
2019-05-07T02:23:17.073Z,76.74
2019-05-07T02:25:48.736Z,76.72
2019-05-07T02:28:22.274Z,76.71
2019-05-07T02:30:54.061Z,76.89
2019-05-07T02:33:27.821Z,77.10
2019-05-07T02:35:59.394Z,77.22
2019-05-07T02:38:37.488Z,77.33
2019-05-07T02:41:18.441Z,77.32
2019-05-07T02:43:49.687Z,77.31
2019-05-07T02:46:52.882Z,77.81
2019-05-07T02:49:33.058Z,77.49
2019-05-07T02:52:13.474Z,77.92
2019-05-07T02:55:03.924Z,78.20
2019-05-07T02:57:35.833Z,77.98
2019-05-07T03:00:07.457Z,77.99
2019-05-07T03:02:38.725Z,78.16
2019-05-07T03:05:13.676Z,78.34
2019-05-07T03:07:43.665Z,78.20
2019-05-07T03:10:15.095Z,78.17
2019-05-07T03:12:46.510Z,77.88
2019-05-07T03:15:17.995Z,77.90
2019-05-07T03:17:49.593Z,78.13
2019-05-07T03:20:25.403Z,78.29
2019-05-07T03:22:57.949Z,78.21
2019-05-07T03:25:34.442Z,78.54
2019-05-07T03:28:05.910Z,78.41
2019-05-07T03:30:56.150Z,78.50
2019-05-07T03:33:36.605Z,79.01
2019-05-07T03:36:07.968Z,78.92
2019-05-07T03:38:39.701Z,79.52
2019-05-07T03:41:12.859Z,79.31
2019-05-07T03:43:46.966Z,79.68
2019-05-07T03:46:23.206Z,80.18
2019-05-07T03:48:53.266Z,80.39
2019-05-07T03:51:24.645Z,80.35
2019-05-07T03:53:55.921Z,80.06
2019-05-07T03:56:27.153Z,79.93
2019-05-07T03:58:58.598Z,80.03
2019-05-07T04:01:33.443Z,79.91
2019-05-07T04:04:05.760Z,79.94
2019-05-07T04:06:37.596Z,79.70
2019-05-07T04:09:08.971Z,79.62
2019-05-07T04:11:43.080Z,79.66
2019-05-07T04:14:13.792Z,79.47
2019-05-07T04:16:45.263Z,79.33
2019-05-07T04:19:16.497Z,79.45
2019-05-07T04:21:47.708Z,79.37
2019-05-07T04:24:34.457Z,79.54
2019-05-07T04:27:16.162Z,79.55
2019-05-07T04:29:47.394Z,79.68
2019-05-07T04:32:23.027Z,80.07
2019-05-07T04:35:03.824Z,80.05
2019-05-07T04:37:35.521Z,80.29
2019-05-07T04:40:06.923Z,80.19
2019-05-07T04:42:38.703Z,79.62
2019-05-07T04:45:13.576Z,79.74
2019-05-07T04:47:47.548Z,79.56
2019-05-07T04:50:37.257Z,79.36
2019-05-07T04:52:54.067Z,79.33
2019-05-07T04:55:24.759Z,80.12
2019-05-07T04:57:56.099Z,80.09
2019-05-07T05:00:27.573Z,80.07
2019-05-07T05:03:05.754Z,79.97
2019-05-07T05:05:36.993Z,79.77
2019-05-07T05:08:08.218Z,79.58
2019-05-07T05:10:39.483Z,79.07
2019-05-07T05:13:12.978Z,79.01
2019-05-07T05:15:43.733Z,78.92
2019-05-07T05:18:15.306Z,78.69
2019-05-07T05:21:12.172Z,78.19
2019-05-07T05:24:08.412Z,77.90
2019-05-07T05:26:41.844Z,78.37
2019-05-07T05:29:12.897Z,79.02
2019-05-07T05:31:44.115Z,79.14
2019-05-07T05:34:15.861Z,79.36
2019-05-07T05:36:47.457Z,79.38
2019-05-07T05:39:18.799Z,78.84
2019-05-07T05:41:53.830Z,78.60
2019-05-07T05:44:32.059Z,78.51
2019-05-07T05:47:03.273Z,78.52
2019-05-07T05:49:34.526Z,78.82
2019-05-07T05:52:22.254Z,79.38
2019-05-07T05:55:02.526Z,79.99
2019-05-07T05:57:52.011Z,80.30
2019-05-07T06:00:42.316Z,80.55
2019-05-07T06:03:25.925Z,81.04
2019-05-07T06:06:12.751Z,80.60
2019-05-07T06:09:09.387Z,80.87
2019-05-07T06:12:03.450Z,80.71
2019-05-07T06:14:44.294Z,79.97
2019-05-07T06:17:42.364Z,79.89
2019-05-07T06:20:32.546Z,79.00
2019-05-07T06:23:32.960Z,79.06
2019-05-07T06:26:05.468Z,78.12
2019-05-07T06:28:37.134Z,77.72
2019-05-07T06:31:08.828Z,77.62
2019-05-07T06:33:40.082Z,77.37
2019-05-07T06:36:12.546Z,77.87
2019-05-07T06:38:53.085Z,76.21
2019-05-07T06:41:42.156Z,76.30
2019-05-07T06:44:18.042Z,76.38
2019-05-07T06:46:52.656Z,77.19
2019-05-07T06:49:24.208Z,76.98
2019-05-07T06:51:55.485Z,76.77
2019-05-07T06:54:26.723Z,76.64
2019-05-07T06:56:58.122Z,76.70
2019-05-07T06:59:43.599Z,76.12
2019-05-07T07:02:36.879Z,75.11
2019-05-07T07:11:38.145Z,56.32
2019-05-07T07:14:09.360Z,57.64
2019-05-07T07:16:42.039Z,56.16
2019-05-07T07:19:13.468Z,57.35
2019-05-07T07:21:45.402Z,58.80
2019-05-07T07:24:16.992Z,57.99
2019-05-07T07:26:49.111Z,58.05
2019-05-07T07:29:24.072Z,57.05
2019-05-07T07:31:58.558Z,55.76
2019-05-07T07:34:33.283Z,57.24
2019-05-07T07:37:19.017Z,54.44
2019-05-07T07:39:52.447Z,55.46
2019-05-07T07:42:23.825Z,54.27
2019-05-07T07:45:14.893Z,53.07
2019-05-07T07:47:46.880Z,48.65
2019-05-07T07:50:18.499Z,49.97
2019-05-07T07:52:53.003Z,51.85
2019-05-07T07:55:34.128Z,51.31
2019-05-07T07:58:12.236Z,52.00
2019-05-07T08:01:05.483Z,50.22
2019-05-07T08:03:37.917Z,50.53
2019-05-07T08:06:09.304Z,49.74
2019-05-07T08:08:42.457Z,47.67
2019-05-07T08:11:14.080Z,46.85
2019-05-07T08:13:45.806Z,46.92
2019-05-07T08:16:17.015Z,47.32
2019-05-07T08:18:48.632Z,48.63
2019-05-07T08:21:19.837Z,48.63
2019-05-07T08:23:52.859Z,49.63
2019-05-07T08:26:24.400Z,50.46
2019-05-07T08:28:56.084Z,51.55
2019-05-07T08:31:42.466Z,50.48
2019-05-07T08:34:27.829Z,50.08
2019-05-07T08:36:59.334Z,50.19
2019-05-07T08:39:32.554Z,49.45
2019-05-07T08:42:04.501Z,49.51
2019-05-07T08:44:52.052Z,51.43
2019-05-07T08:47:31.928Z,49.49
2019-05-07T08:50:03.356Z,48.66
2019-05-07T08:52:34.551Z,47.05
2019-05-07T08:55:07.587Z,46.99
2019-05-07T08:57:38.992Z,47.50
2019-05-07T09:00:14.288Z,48.30
2019-05-07T09:02:47.070Z,49.12
2019-05-07T09:05:18.519Z,48.24
2019-05-07T09:07:51.640Z,46.80
2019-05-07T09:10:23.030Z,46.17
2019-05-07T09:12:54.441Z,46.14
2019-05-07T09:15:25.820Z,46.57
2019-05-07T09:17:57.382Z,48.77
2019-05-07T09:20:28.686Z,46.77
2019-05-07T09:23:02.151Z,47.33
2019-05-07T09:25:36.584Z,45.59
2019-05-07T09:28:08.750Z,45.37
2019-05-07T09:30:58.722Z,46.86
2019-05-07T09:33:34.197Z,44.45
2019-05-07T09:36:08.610Z,45.31
2019-05-07T09:38:41.844Z,46.08
2019-05-07T09:41:27.015Z,44.64
2019-05-07T09:43:59.127Z,44.38
2019-05-07T09:46:32.533Z,45.75
2019-05-07T09:49:03.587Z,46.25
2019-05-07T09:51:35.002Z,43.40
2019-05-07T09:54:06.350Z,49.05
2019-05-07T09:56:37.630Z,50.88
2019-05-07T09:59:09.054Z,52.74
2019-05-07T10:01:41.708Z,53.45
2019-05-07T10:04:13.964Z,52.34
2019-05-07T10:06:46.124Z,51.25
2019-05-07T10:09:19.256Z,53.90
2019-05-07T10:11:57.309Z,53.88
2019-05-07T10:14:30.163Z,53.29
2019-05-07T10:17:11.955Z,51.42
2019-05-07T10:19:45.437Z,52.22
2019-05-07T10:22:17.073Z,52.26
2019-05-07T10:24:52.098Z,52.44
2019-05-07T10:27:23.150Z,51.18
2019-05-07T10:29:54.386Z,51.60
2019-05-07T10:32:26.019Z,52.41
2019-05-07T10:34:57.243Z,52.22
2019-05-07T10:37:28.656Z,54.35
2019-05-07T10:40:02.850Z,54.39
2019-05-07T10:42:34.020Z,54.21
2019-05-07T10:45:17.011Z,54.61
2019-05-07T10:47:59.978Z,55.20
2019-05-07T10:50:38.764Z,55.62
2019-05-07T10:53:04.328Z,54.68
2019-05-07T10:55:35.546Z,55.43
2019-05-07T10:58:06.891Z,54.85
2019-05-07T11:00:38.343Z,54.55
2019-05-07T11:03:09.940Z,54.96
2019-05-07T11:05:41.877Z,54.19
2019-05-07T11:08:13.381Z,54.66
2019-05-07T11:10:45.482Z,54.10
2019-05-07T11:13:16.717Z,54.41
2019-05-07T11:15:51.785Z,54.17
2019-05-07T11:18:32.419Z,54.23
2019-05-07T11:21:05.484Z,53.97
2019-05-07T11:23:36.698Z,53.98
2019-05-07T11:26:07.880Z,52.73
2019-05-07T11:28:39.492Z,51.59
2019-05-07T11:31:12.432Z,53.13
2019-05-07T11:33:43.922Z,54.06
2019-05-07T11:36:15.292Z,54.16
2019-05-07T11:38:47.340Z,54.25
2019-05-07T11:41:22.924Z,53.97
2019-05-07T11:44:01.763Z,53.44
2019-05-07T11:46:44.461Z,55.24
2019-05-07T11:49:23.041Z,55.29
2019-05-07T11:52:02.445Z,54.91
2019-05-07T11:54:34.201Z,55.71
2019-05-07T11:57:05.579Z,54.79
2019-05-07T11:59:37.165Z,53.01
2019-05-07T12:02:08.912Z,53.99
2019-05-07T12:04:42.223Z,52.36
2019-05-07T12:07:13.838Z,53.67
2019-05-07T12:09:45.108Z,52.19
2019-05-07T12:12:16.498Z,52.79
2019-05-07T12:14:47.761Z,52.20
2019-05-07T12:17:19.463Z,52.68
2019-05-07T12:19:52.684Z,50.71
2019-05-07T12:22:58.933Z,50.90
2019-05-07T12:25:32.114Z,50.42
2019-05-07T12:28:03.449Z,49.98
2019-05-07T12:31:12.215Z,50.93
2019-05-07T12:33:52.037Z,50.59
2019-05-07T12:36:23.233Z,50.45
2019-05-07T12:38:54.658Z,50.03
2019-05-07T12:41:30.187Z,50.11
2019-05-07T12:44:04.670Z,51.37
2019-05-07T12:46:36.388Z,51.19
2019-05-07T12:49:07.634Z,52.48
2019-05-07T12:52:02.937Z,53.08
2019-05-07T12:54:53.566Z,49.73
2019-05-07T12:57:24.790Z,50.68
2019-05-07T12:59:58.794Z,50.14
2019-05-07T13:02:44.442Z,48.69
2019-05-07T13:05:16.295Z,49.03
2019-05-07T13:07:51.463Z,48.69
2019-05-07T13:10:22.698Z,47.57
2019-05-07T13:12:53.926Z,48.99
2019-05-07T13:15:28.086Z,49.89
2019-05-07T13:17:58.326Z,50.24
2019-05-07T13:20:29.599Z,49.64
2019-05-07T13:23:01.001Z,45.85
2019-05-07T13:25:32.654Z,46.26
2019-05-07T13:28:03.874Z,47.77
2019-05-07T13:30:35.298Z,47.95
2019-05-07T13:33:06.912Z,47.27
2019-05-07T13:35:38.685Z,47.13
2019-05-07T13:38:27.653Z,47.73
2019-05-07T13:41:22.771Z,47.61
2019-05-07T13:44:16.340Z,47.19
2019-05-07T13:46:49.603Z,47.36
2019-05-07T13:49:21.931Z,48.33
2019-05-07T13:52:03.378Z,49.11
2019-05-07T13:54:28.705Z,49.16
2019-05-07T13:57:00.018Z,47.45
2019-05-07T13:59:31.761Z,49.04
2019-05-07T14:02:07.471Z,49.26
2019-05-07T14:04:38.996Z,49.51
2019-05-07T14:07:12.533Z,50.52
2019-05-07T14:09:43.851Z,51.57
2019-05-07T14:12:15.122Z,51.68
2019-05-07T14:14:47.211Z,51.61
2019-05-07T14:17:21.915Z,51.18
2019-05-07T14:19:53.274Z,50.88
2019-05-07T14:22:24.634Z,50.93
2019-05-07T14:24:56.071Z,51.07
2019-05-07T14:27:27.290Z,51.40
2019-05-07T14:29:58.620Z,51.37
2019-05-07T14:32:42.349Z,51.23
2019-05-07T14:35:31.783Z,51.16
2019-05-07T14:38:06.404Z,51.89
2019-05-07T14:40:37.791Z,52.05
2019-05-07T14:43:17.787Z,52.19
2019-05-07T14:45:48.960Z,52.24
2019-05-07T14:48:22.414Z,52.16
2019-05-07T14:50:55.235Z,52.25
2019-05-07T14:53:27.306Z,51.96
2019-05-07T14:55:58.986Z,51.89
2019-05-07T14:58:31.932Z,52.09
2019-05-07T15:01:03.631Z,51.70
2019-05-07T15:03:35.380Z,51.57
2019-05-07T15:06:07.018Z,51.51
2019-05-07T15:08:38.219Z,51.87
2019-05-07T15:11:09.786Z,53.25
2019-05-07T15:13:42.762Z,52.37
2019-05-07T15:16:14.555Z,53.23
2019-05-07T15:18:52.933Z,54.31
2019-05-07T15:21:24.347Z,54.41
2019-05-07T15:23:57.125Z,55.81
2019-05-07T15:26:28.592Z,56.10
2019-05-07T15:29:05.654Z,56.32
2019-05-07T15:31:59.149Z,56.69
2019-05-07T15:34:32.653Z,60.48
2019-05-07T15:37:03.709Z,61.35
2019-05-07T15:39:35.123Z,61.11
2019-05-07T15:42:06.472Z,60.84
2019-05-07T15:44:37.684Z,61.41
2019-05-07T15:47:13.753Z,61.19
2019-05-07T15:49:44.942Z,60.54
2019-05-07T15:52:22.263Z,60.31
2019-05-07T15:54:53.842Z,59.10
2019-05-07T15:57:27.590Z,57.32
2019-05-07T16:00:08.611Z,56.41
2019-05-07T16:02:45.338Z,53.18
2019-05-07T16:05:18.369Z,54.26
2019-05-07T16:07:51.082Z,53.71
2019-05-07T16:10:23.211Z,53.71
2019-05-07T16:12:54.897Z,53.77
2019-05-07T16:15:26.267Z,53.68
2019-05-07T16:18:02.834Z,53.63
2019-05-07T16:20:36.054Z,50.87
2019-05-07T16:23:14.879Z,51.54
2019-05-07T16:25:42.219Z,51.71
2019-05-07T16:28:13.666Z,52.04
2019-05-07T16:30:45.053Z,52.29
2019-05-07T16:33:16.465Z,52.73
2019-05-07T16:35:47.916Z,53.42
2019-05-07T16:38:19.241Z,54.12
2019-05-07T16:40:52.311Z,54.82
2019-05-07T16:43:27.014Z,55.93
2019-05-07T16:45:58.282Z,57.22
2019-05-07T16:48:29.667Z,58.50
2019-05-07T16:51:02.343Z,59.03
2019-05-07T16:53:35.352Z,59.42
2019-05-07T16:56:06.838Z,60.78
2019-05-07T16:58:42.988Z,60.60
2019-05-07T17:01:14.735Z,60.53
2019-05-07T17:03:53.547Z,60.67
2019-05-07T17:06:25.331Z,60.63
2019-05-07T17:09:04.873Z,60.82
2019-05-07T17:11:36.177Z,60.95
2019-05-07T17:14:07.508Z,61.99
2019-05-07T17:16:38.756Z,63.64
2019-05-07T17:19:11.907Z,63.17
2019-05-07T17:21:43.691Z,62.86
2019-05-07T17:24:15.187Z,62.74
2019-05-07T17:26:46.464Z,63.43
2019-05-07T17:29:18.056Z,62.95
2019-05-07T17:31:49.388Z,62.83
2019-05-07T17:34:22.157Z,62.98
2019-05-07T17:36:53.763Z,63.06
2019-05-07T17:39:24.968Z,63.25
2019-05-07T17:41:56.180Z,63.23
2019-05-07T17:44:28.220Z,63.64
2019-05-07T17:47:01.792Z,63.71
2019-05-07T17:49:33.999Z,63.71
2019-05-07T17:52:05.680Z,63.93
2019-05-07T17:54:36.996Z,63.99
2019-05-07T17:57:08.300Z,63.98
2019-05-07T17:59:39.507Z,63.68
2019-05-07T18:02:24.362Z,63.50
2019-05-07T18:04:55.635Z,63.48
2019-05-07T18:07:28.485Z,62.84
2019-05-07T18:10:02.265Z,63.63
2019-05-07T18:12:33.144Z,65.27
2019-05-07T18:15:06.639Z,68.77
2019-05-07T18:18:00.876Z,68.59
2019-05-07T18:20:32.958Z,68.97
2019-05-07T18:23:06.904Z,70.27
2019-05-07T18:25:37.712Z,70.53
2019-05-07T18:28:08.937Z,69.88
2019-05-07T18:30:40.293Z,69.84
2019-05-07T18:33:25.570Z,68.89
2019-05-07T18:35:56.159Z,67.80
2019-05-07T18:38:27.650Z,67.48
2019-05-07T18:40:58.928Z,67.34
2019-05-07T18:43:30.209Z,67.24
2019-05-07T18:46:02.264Z,66.51
2019-05-07T18:48:37.190Z,66.45
2019-05-07T18:51:08.529Z,66.55
2019-05-07T18:53:52.113Z,66.69
2019-05-07T18:56:24.033Z,67.09
2019-05-07T18:58:55.226Z,67.03
2019-05-07T19:01:28.377Z,67.30
2019-05-07T19:04:01.934Z,67.83
2019-05-07T19:06:32.983Z,68.19
2019-05-07T19:09:07.344Z,68.19
2019-05-07T19:11:38.727Z,68.02
2019-05-07T19:14:10.337Z,68.17
2019-05-07T19:16:43.069Z,67.89
2019-05-07T19:19:14.762Z,67.62
2019-05-07T19:21:46.303Z,67.41
2019-05-07T19:24:19.449Z,68.05
2019-05-07T19:26:52.857Z,68.63
2019-05-07T19:29:24.191Z,68.17
2019-05-07T19:31:55.683Z,68.56
2019-05-07T19:34:27.049Z,67.87
2019-05-07T19:36:58.333Z,70.27
2019-05-07T19:39:29.668Z,69.05
2019-05-07T19:42:02.606Z,68.76
2019-05-07T19:44:34.527Z,68.81
2019-05-07T19:47:05.864Z,69.33
2019-05-07T19:49:37.323Z,69.46
2019-05-07T19:52:12.429Z,69.42
2019-05-07T19:54:57.925Z,69.89
2019-05-07T19:57:23.203Z,69.35
2019-05-07T19:59:54.565Z,69.77
2019-05-07T20:02:32.004Z,69.65
2019-05-07T20:05:04.756Z,69.91
2019-05-07T20:07:36.307Z,70.31
2019-05-07T20:10:17.265Z,70.59
2019-05-07T20:12:48.705Z,70.36
2019-05-07T20:15:22.404Z,70.47
2019-05-07T20:17:57.784Z,70.31
2019-05-07T20:20:29.304Z,70.69
2019-05-07T20:23:06.730Z,70.65
2019-05-07T20:25:38.128Z,70.93
2019-05-07T20:28:12.587Z,70.41
2019-05-07T20:30:44.777Z,70.16
2019-05-07T20:33:26.416Z,70.25
2019-05-07T20:35:57.793Z,69.95
2019-05-07T20:38:29.092Z,70.33
2019-05-07T20:41:02.103Z,70.08
2019-05-07T20:43:33.619Z,70.63
2019-05-07T20:46:04.840Z,70.21
2019-05-07T20:48:36.380Z,70.23
2019-05-07T20:51:07.769Z,70.43
2019-05-07T20:53:56.291Z,70.42
2019-05-07T20:56:32.242Z,70.18
2019-05-07T20:59:03.943Z,70.33
2019-05-07T21:01:35.349Z,70.73
2019-05-07T21:04:06.615Z,70.26
2019-05-07T21:06:38.048Z,70.44
2019-05-07T21:09:09.751Z,70.43
2019-05-07T21:11:43.054Z,70.34
2019-05-07T21:14:14.152Z,70.17
2019-05-07T21:16:45.426Z,70.17
2019-05-07T21:19:16.813Z,69.78
2019-05-07T21:21:48.110Z,69.96
2019-05-07T21:24:19.408Z,69.89
2019-05-07T21:26:52.902Z,69.87
2019-05-07T21:29:23.828Z,70.35
2019-05-07T21:31:55.420Z,70.35
2019-05-07T21:34:27.294Z,71.13
2019-05-07T21:36:58.522Z,71.58
2019-05-07T21:39:29.803Z,70.53
2019-05-07T21:42:02.603Z,71.30
2019-05-07T21:44:33.791Z,71.48
2019-05-07T21:47:05.013Z,71.15
2019-05-07T21:49:36.468Z,70.98
2019-05-07T21:52:09.898Z,71.06
2019-05-07T21:55:04.098Z,71.60
2019-05-07T21:57:49.110Z,72.27
2019-05-07T22:00:45.308Z,72.77
2019-05-07T22:03:17.535Z,72.25
2019-05-07T22:05:51.751Z,72.09
2019-05-07T22:08:28.122Z,71.57
2019-05-07T22:10:59.342Z,71.31
2019-05-07T22:13:32.764Z,71.46
2019-05-07T22:16:04.023Z,71.50
2019-05-07T22:18:35.333Z,71.05
2019-05-07T22:21:12.701Z,70.95
2019-05-07T22:23:44.115Z,70.54
2019-05-07T22:26:22.656Z,71.27
2019-05-07T22:28:55.444Z,72.12
2019-05-07T22:31:44.279Z,72.51
2019-05-07T22:34:30.331Z,72.34
2019-05-07T22:37:06.278Z,72.03
2019-05-07T22:39:42.515Z,71.78
2019-05-07T22:42:13.831Z,72.25
2019-05-07T22:44:45.241Z,72.20
2019-05-07T22:47:23.050Z,73.30
2019-05-07T22:49:54.611Z,73.21
2019-05-07T22:52:26.024Z,72.88
2019-05-07T22:54:57.422Z,73.14
2019-05-07T22:57:46.222Z,73.67
2019-05-07T23:00:26.066Z,73.75
2019-05-07T23:02:57.524Z,73.87
2019-05-07T23:05:28.753Z,74.17
2019-05-07T23:08:02.406Z,74.36
2019-05-07T23:10:33.477Z,74.21
2019-05-07T23:13:04.751Z,73.37
2019-05-07T23:15:35.986Z,73.35
2019-05-07T23:18:07.201Z,73.29
2019-05-07T23:20:38.642Z,73.40
2019-05-07T23:23:13.906Z,72.79
2019-05-07T23:25:43.478Z,73.17
2019-05-07T23:28:14.699Z,72.84
2019-05-07T23:30:46.714Z,73.01
2019-05-07T23:33:18.085Z,73.50
2019-05-07T23:35:49.412Z,73.33
2019-05-07T23:38:22.584Z,74.21
2019-05-07T23:41:18.081Z,74.43
2019-05-07T23:44:07.422Z,74.38
2019-05-07T23:46:39.049Z,73.82
2019-05-07T23:49:12.380Z,73.62
2019-05-07T23:51:43.391Z,74.34
2019-05-07T23:54:15.085Z,74.49
2019-05-07T23:56:46.923Z,74.41
2019-05-07T23:59:18.193Z,73.68
